createdAt,value
2023-12-20T11:52:53.488Z,99464.17
2023-12-20T11:55:24.254Z,99464.69
2023-12-20T11:57:54.732Z,99467.66
2023-12-20T12:00:23.197Z,99458.92
2023-12-20T12:03:01.156Z,99457.79
2023-12-20T12:05:30.411Z,99447.67
2023-12-20T12:08:09.516Z,99446.27
2023-12-20T12:10:41.791Z,99444.68
2023-12-20T12:13:17.711Z,99447.23
2023-12-20T12:15:49.217Z,99449.66
2023-12-20T12:18:23.041Z,99440.13
2023-12-20T12:21:22.937Z,99442.86
2023-12-20T12:24:10.651Z,99433.90
2023-12-20T12:31:05.277Z,99425.92
2023-12-20T12:33:58.395Z,99426.56
2023-12-20T12:36:31.074Z,99429.27
2023-12-20T12:44:57.346Z,99430.42
2023-12-20T12:47:29.219Z,99425.80
2023-12-20T12:50:06.125Z,99425.71
2023-12-20T12:52:53.232Z,99415.73
2023-12-20T12:56:40.262Z,99416.41
2023-12-20T12:59:11.791Z,99415.66
2023-12-20T13:01:44.308Z,99414.73
2023-12-20T13:04:16.872Z,99418.14
2023-12-20T13:06:48.068Z,99418.36
2023-12-20T13:09:19.805Z,99416.02
2023-12-20T13:11:53.679Z,99420.92
2023-12-20T13:14:33.086Z,99423.10
2023-12-20T13:17:17.049Z,99419.40
2023-12-20T13:20:29.913Z,99416.81
2023-12-20T13:22:59.963Z,99411.67
2023-12-20T13:25:42.802Z,99404.65
2023-12-20T13:28:21.254Z,99400.94
2023-12-20T13:30:50.699Z,99401.42
2023-12-20T13:33:26.517Z,99408.18
2023-12-20T13:35:59.237Z,99408.87
2023-12-20T13:38:30.741Z,99407.02
2023-12-20T13:41:01.720Z,99409.92
2023-12-20T13:49:59.581Z,99388.42
2023-12-20T13:52:39.432Z,99387.33
2023-12-20T13:55:08.674Z,99382.10
2023-12-20T13:57:52.385Z,99377.23
2023-12-20T14:00:26.869Z,99375.71
2023-12-20T14:03:01.831Z,99361.83
2023-12-20T14:05:30.308Z,99360.13
2023-12-20T14:08:05.876Z,99363.77
2023-12-20T14:10:36.489Z,99360.52
2023-12-20T14:13:21.264Z,99359.70
2023-12-20T14:15:53.183Z,99363.52
2023-12-20T14:18:25.167Z,99365.17
2023-12-20T14:20:58.872Z,99361.21
2023-12-20T14:23:34.568Z,99350.64
2023-12-20T14:26:05.315Z,99348.60
2023-12-20T14:28:34.952Z,99347.40
2023-12-20T14:31:14.249Z,99347.15
2023-12-20T14:33:43.307Z,99339.73
2023-12-20T14:36:21.982Z,99337.46
2023-12-20T14:38:55.539Z,99340.52
2023-12-20T14:41:33.456Z,99339.41
2023-12-20T14:44:07.946Z,99338.13
2023-12-20T14:46:40.863Z,99337.35
2023-12-20T14:49:19.062Z,99337.46
2023-12-20T14:51:49.784Z,99335.65
2023-12-20T14:54:22.367Z,99335.13
2023-12-20T14:56:56.575Z,99332.86
2023-12-20T14:59:37.751Z,99334.34
2023-12-20T15:02:07.798Z,99333.14
2023-12-20T15:04:37.779Z,99329.83
2023-12-20T15:07:07.503Z,99323.02
2023-12-20T15:09:36.105Z,99323.09
2023-12-20T15:12:12.683Z,99315.85
2023-12-20T15:14:47.122Z,99310.05
2023-12-20T15:17:21.454Z,99309.64
2023-12-20T15:19:50.547Z,99311.30
2023-12-20T15:22:29.010Z,99311.74
2023-12-20T15:25:08.673Z,99306.81
2023-12-20T15:27:56.332Z,99299.54
2023-12-20T15:30:31.105Z,99293.72
2023-12-20T15:33:07.783Z,99295.06
2023-12-20T15:35:59.177Z,99291.21
2023-12-20T15:38:32.594Z,99289.63
2023-12-20T15:41:01.097Z,99290.13
2023-12-20T15:43:35.105Z,99288.39
2023-12-20T15:46:07.120Z,99290.06
2023-12-20T15:48:42.530Z,99291.19
2023-12-20T15:51:12.993Z,99285.93
2023-12-20T15:53:47.742Z,99283.89
2023-12-20T15:56:18.637Z,99282.04
2023-12-20T15:58:56.956Z,99286.95
2023-12-20T16:01:54.230Z,99292.83
2023-12-20T16:04:39.225Z,99301.63
2023-12-20T16:07:10.864Z,99302.07
2023-12-20T16:09:43.153Z,99294.02
2023-12-20T16:12:12.107Z,99292.41
2023-12-20T16:14:54.919Z,99292.39
2023-12-20T16:17:41.663Z,99298.32
2023-12-20T16:20:25.680Z,99295.34
2023-12-20T16:22:55.499Z,99293.54
2023-12-20T16:25:26.309Z,99289.10
2023-12-20T16:29:13.754Z,99277.58
2023-12-20T16:31:46.562Z,99272.61
2023-12-20T16:39:26.442Z,99278.14
2023-12-20T16:47:27.753Z,99271.54
2023-12-20T16:50:04.199Z,99267.58
2023-12-20T17:13:18.310Z,99238.02
2023-12-20T17:17:03.442Z,99239.94
2023-12-20T17:29:08.001Z,99242.64
2023-12-20T17:36:42.660Z,99236.30
2023-12-20T17:49:36.808Z,99226.34
2023-12-20T18:06:06.440Z,99193.79
2023-12-20T18:10:39.389Z,99199.02
2023-12-20T18:22:45.254Z,99169.41
2023-12-20T18:29:22.644Z,99168.21
2023-12-20T18:31:51.154Z,99168.31
2023-12-20T18:34:24.755Z,99170.14
2023-12-20T18:43:02.600Z,99143.91
2023-12-20T18:56:52.446Z,99147.73
2023-12-20T18:59:34.292Z,99166.35
2023-12-20T19:10:58.125Z,99124.89
2023-12-20T19:22:35.330Z,99111.45
2023-12-20T19:25:13.490Z,99118.06
2023-12-20T19:27:42.870Z,99125.35
2023-12-20T19:30:12.289Z,99118.24
2023-12-20T19:32:49.927Z,99121.48
2023-12-20T19:49:43.019Z,99139.61
2023-12-20T19:52:18.450Z,99148.25
2023-12-20T19:55:03.385Z,99145.48
2023-12-20T19:58:49.791Z,99153.34
2023-12-20T20:01:24.012Z,99139.05
2023-12-20T20:11:53.072Z,99124.79
2023-12-20T20:14:22.502Z,99113.98
2023-12-20T20:16:52.772Z,99120.19
2023-12-20T20:19:29.231Z,99124.02
2023-12-20T20:22:08.044Z,99121.02
2023-12-20T20:24:37.553Z,99114.14
2023-12-20T20:27:33.429Z,99103.98
2023-12-20T20:30:06.935Z,99094.58
2023-12-20T20:33:22.977Z,99112.58
2023-12-20T20:35:56.273Z,99118.06
2023-12-20T20:39:07.935Z,99103.67
2023-12-20T20:41:41.331Z,99097.63
2023-12-20T20:44:12.673Z,99111.55
2023-12-20T20:46:53.142Z,99111.90
2023-12-20T20:50:05.163Z,99105.11
2023-12-20T20:57:01.269Z,99096.69
2023-12-20T21:00:24.224Z,99096.43
2023-12-20T21:02:59.392Z,99107.45
2023-12-20T21:05:31.035Z,99119.30
2023-12-20T21:08:09.200Z,99125.92
2023-12-20T21:10:52.199Z,99110.77
2023-12-20T21:13:25.102Z,99113.79
2023-12-20T21:16:22.165Z,99123.36
2023-12-20T21:18:58.082Z,99121.09
2023-12-20T21:21:29.144Z,99108.17
2023-12-20T21:24:14.689Z,99103.93
2023-12-20T21:26:53.053Z,99083.30
2023-12-20T21:29:31.579Z,99086.77
2023-12-20T21:32:10.249Z,99091.64
2023-12-20T21:34:45.259Z,99072.20
2023-12-20T21:37:22.083Z,99063.59
2023-12-20T21:39:55.856Z,99065.01
2023-12-20T21:42:28.838Z,99059.75
2023-12-20T21:45:15.141Z,99064.02
2023-12-20T21:47:44.433Z,99052.51
2023-12-20T21:50:23.592Z,99052.65
2023-12-20T21:53:00.688Z,99044.97
2023-12-20T21:55:37.288Z,99038.76
2023-12-20T21:58:10.167Z,99038.20
2023-12-20T22:00:54.289Z,99050.87
2023-12-20T22:03:26.644Z,99041.94
2023-12-20T22:05:58.447Z,99020.80
2023-12-20T22:08:28.423Z,99021.97
2023-12-20T22:11:06.647Z,99032.98
2023-12-20T22:13:42.233Z,99047.88
2023-12-20T22:16:18.633Z,99043.80
2023-12-20T22:18:53.741Z,99035.79
2023-12-20T22:21:39.245Z,99039.88
2023-12-20T22:24:26.495Z,99049.23
2023-12-20T22:26:58.867Z,99049.38
2023-12-20T22:29:40.154Z,99038.48
2023-12-20T22:32:18.317Z,99038.16
2023-12-20T22:34:55.449Z,99042.13
2023-12-20T22:37:24.714Z,99046.00
2023-12-20T22:39:58.397Z,99047.30
2023-12-20T22:42:36.449Z,99037.13
2023-12-20T22:45:18.287Z,99036.36
2023-12-20T22:47:53.107Z,99036.79
2023-12-20T22:50:24.117Z,99036.71
2023-12-20T22:53:01.139Z,99040.61
2023-12-20T22:55:38.076Z,99042.23
2023-12-20T22:58:08.921Z,99060.25
2023-12-20T23:00:44.979Z,99063.15
2023-12-20T23:03:13.596Z,99065.90
2023-12-20T23:05:45.647Z,99061.66
2023-12-20T23:08:17.249Z,99055.27
2023-12-20T23:10:49.731Z,99056.30
2023-12-20T23:13:23.275Z,99059.60
2023-12-20T23:15:57.101Z,99055.13
2023-12-20T23:21:19.823Z,99055.36
2023-12-20T23:24:01.493Z,99047.04
2023-12-20T23:26:29.827Z,99044.02
2023-12-20T23:29:04.457Z,99044.63
2023-12-20T23:31:40.436Z,99042.15
2023-12-20T23:34:13.881Z,99049.86
2023-12-20T23:36:48.303Z,99049.06
2023-12-20T23:39:35.812Z,99041.83
2023-12-20T23:42:04.926Z,99041.94
2023-12-20T23:44:37.155Z,99043.60
2023-12-20T23:47:10.733Z,99046.00
2023-12-20T23:49:39.771Z,99050.98
2023-12-20T23:52:10.415Z,99052.06
2023-12-20T23:54:41.592Z,99054.70
2023-12-20T23:57:10.888Z,99046.24
2023-12-20T23:59:49.893Z,99045.76
